Ackley, IA

8:00 PM CST on November 26, 2014 (GMT -0600)
Jensen Farm | Change Station
CLOSE
Current Station
Personal Weather Station
Location: Iowa Falls, IA
Elevation: 1129 ft
Nearby Weather Stations

Elev 1129 ft 42.50 °N, 93.20 °W | Updated 24 seconds ago

Overcast
Overcast
23.9 °F
Feels Like 14 °F
N
9.0
Wind Variable Wind from NNW
Gusts 15.0 mph

Today
High -- | Low -- °F
--% Chance of Precip.
Yesterday
High -- | Low -- °F
Precip. -- in
7:16 AM 4:42 PM
Waxing Crescent, 24% visible
Pressure 30.26 in
Visibility 7.0 miles
Clouds Overcast 900 ft
Windchill 14 °F
Dew Point 23 °F
Humidity 93%
Rainfall 0.00 in
Snow Depth Not available.
UV 0 out of 12
Pollen .10 out of 12
Air Quality Not available.
Flu Activity Not available.
METAR KIFA 270155Z AUTO 33011KT 7SM -SN OVC009 M03/M05 A3026 RMK AO2 T10351048

More Conditions Fewer Conditions

Pressure 30.26 in
Visibility 7.0 miles
Clouds Overcast 900 ft
Windchill 14 °F
Dew Point 23 °F
Humidity 93%
Rainfall 0.00 in
Snow Depth Not available.
UV 0 out of 12
Pollen .10 out of 12
Air Quality Not available.
Flu Activity Not available.
METAR KIFA 270155Z AUTO 33011KT 7SM -SN OVC009 M03/M05 A3026 RMK AO2 T10351048

More Conditions Fewer Conditions

10-Day Weather Forecast

Almanac

Astronomy

Nov. 26, 2014 Rise Set
Actual Time
Civil Twilight
Nautical Twilight
Astronomical Twilight
Moon
Length of Visible Light
Length of Day
Tomorrow will be .
, % of the Moon is Illuminated

Today's Extremes

State Highs State Lows

Community

WunderPhotos

Upload Photos

1,773,942 photos uploaded!

WunderBlogs® & News

Nearby

Air Quality

  Air Quality AQ Index Pollutant
Not available.

Snow Depth

Station Depth Elevation

Earthquake Activity

City Distance Mag. Time & Date
Minimum magnitude displayed is 2.5.

Coastal Water Temperatures

Place Temperature

Nearby Weather Stations